עמוד ראשי
METAR-TAF:

METAR-TAF

שדות תעופה :

Wick, סקוטלנד

קו רוחב: 58-27N, קו אורך: 003-05W, גובה: 39מטר

תצפית מזג אוויר נוכחית

הדו"ח נערך לפני 25דקות, בשעה 23:20 UTC
רוח רגועה
טמפרטורת 11 צלסיוס
לחות 87%
לחץ 1018 hPa
ראות 10 קילומטר או יותר

METAR: EGPC 182320Z AUTO 00000KT 9999 BKN014/// OVC020/// 11/09 Q1018

זמן: 00:45 (23:45 UTC)

תחזית

הדו"ח נערך לפני 51דקות, בשעה 22:54 UTC
תחזית בתוקף מ 19 ב 00 UTC עד 19 ב 09 UTC
רוח 5קשר מכיוון צפון
ראות 10 קילומטר או יותר
עננים בינוניים בגובה 1800רגל
הסתברות 40% :
זמנית מ -
19 ב 00 UTC עד 19 ב 09 UTC
ראות: 8000מטר
עננים בינוניים בגובה 1200רגל

TAF: EGPC 182254Z 1900/1909 35005KT 9999 BKN018 PROB40 TEMPO 1900/1909 8000 BKN012

תצפיות ותחזיות מזג אוויר לגבי יותר מ- 4,000 שדות תעופה ברחבי העולם. דוחות METAR ו- TAF.

התחנות הזמינות מסומנות בנקודות צהובות ואדומות על גבי המפה.

העבר את העכבר לנקודה הצבעונית על מנת לראות את שם התחנה.

לאחר מכן, לחץ כדי לראות את תוכן ואת תחזיות מזג האוויר.

כדי לשנות את המפה: לחץ על הכפתורים הירוקים עם הפלוס השחור כדי להתקרב; על הכפתור הירוק עם המקף כדי להתרחק; או בחיצים הירוקים למפות סמוכות.


METAR-TAF: